Date,TemperatureHighF,TemperatureAvgF,TemperatureLowF,DewpointHighF,DewpointAvgF,DewpointLowF,HumidityHigh,HumidityAvg,HumidityLow,PressureMaxIn,PressureMinIn,WindSpeedMaxMPH,WindSpeedAvgMPH,GustSpeedMaxMPH,PrecipitationSumIn
2013-1-22,11.7,11.1,9.1,0.1,-1.4,-3.4,59,56,53,30.34,30.30,14,9,20,0.00
2013-1-23,23.1,15.5,10.1,14.3,7.2,-0.7,85,69,57,30.36,30.08,17,8,22,0.00
2013-1-24,20.7,12.9,3.7,9.2,2.8,-3.5,72,64,54,30.61,30.29,11,6,15,0.00
2013-1-25,33.2,22.8,17.2,21.0,14.6,6.8,87,71,56,30.28,29.92,17,10,24,0.00
2013-1-26,26.8,19.1,8.6,16.0,10.5,3.7,83,69,54,30.35,30.16,9,4,14,0.00
2013-1-27,38.1,29.9,25.1,36.8,25.2,15.2,100,83,65,30.30,29.79,14,7,21,0.38
2013-1-28,48.7,43.3,38.4,47.3,41.9,36.9,100,95,89,29.87,29.64,19,8,25,0.03
2013-1-29,63.6,55.7,41.0,59.7,53.6,39.8,100,93,85,29.65,29.31,23,11,35,0.69
2013-1-30,40.9,30.5,17.1,39.7,28.2,10.9,96,91,76,29.63,29.16,20,10,28,0.30
2013-1-31,17.5,10.3,1.9,12.1,4.3,-4.4,83,76,71,30.20,29.63,21,15,27,0.00
2013-2-1,16.3,6.0,-1.8,13.1,-0.1,-7.3,87,76,68,30.36,30.12,16,10,22,0.00
2013-2-2,23.9,16.4,8.6,21.6,12.0,4.2,92,82,71,30.12,29.97,12,7,19,0.00
2013-2-3,22.8,18.8,11.6,18.0,14.0,7.4,92,81,70,30.02,29.91,18,7,25,0.00
2013-2-4,26.2,21.8,11.6,22.5,17.4,7.3,92,83,76,29.94,29.77,12,6,16,0.00
2013-2-5,31.4,24.7,11.3,28.0,20.4,6.7,90,83,76,30.05,29.76,17,7,22,0.00
2013-2-6,40.6,31.2,17.4,32.4,25.6,13.7,89,80,70,30.15,29.97,14,6,24,0.00
2013-2-7,35.6,33.2,28.9,33.5,31.3,26.9,95,93,84,30.00,29.80,11,6,16,0.56
2013-2-8,28.9,23.1,15.2,26.8,19.8,12.8,93,87,82,30.34,29.96,13,6,20,0.00
2013-2-9,32.5,28.6,21.7,28.7,25.3,19.6,92,87,82,30.34,29.97,15,8,22,0.00
2013-2-10,47.8,39.7,32.4,44.7,36.5,28.6,95,89,65,29.99,29.38,29,16,37,0.31
2013-2-11,40.2,32.0,27.2,32.6,25.0,20.6,79,75,71,30.01,29.44,31,21,45,0.01
2013-2-12,31.2,27.3,24.8,24.9,22.1,19.5,88,81,72,30.06,29.85,15,8,23,0.00
2013-2-13,40.9,34.4,26.2,33.3,29.2,23.3,90,81,72,29.85,29.64,13,7,18,0.00
2013-2-14,41.1,36.7,32.0,32.5,30.0,25.7,90,77,59,29.93,29.57,18,11,29,0.00
2013-2-15,32.1,25.9,17.7,29.5,16.3,9.2,90,67,48,30.16,29.93,16,9,24,0.00
2013-2-16,22.6,16.7,12.1,11.2,8.2,5.9,83,69,59,30.16,30.08,12,6,19,0.00
2013-2-17,32.1,22.0,8.5,23.0,14.2,4.7,87,72,58,30.16,29.86,17,7,22,0.00
2013-2-18,51.1,39.0,30.2,44.6,32.7,22.4,94,78,67,29.86,29.38,23,12,29,0.50
2013-7-10,82.9,76.1,62.6,68.3,63.6,59.6,90,66,56,29.90,29.81,9,4,15,0.00
2013-7-11,80.4,69.6,58.2,65.1,59.1,54.0,96,73,44,30.01,29.90,8,2,15,0.00
2013-7-12,82.9,70.2,55.6,64.6,57.9,53.1,93,69,42,30.06,29.96,5,1,15,0.00
2013-7-13,82.5,72.3,59.6,65.1,60.9,54.9,92,70,47,30.05,29.97,9,3,15,0.00
2013-7-14,86.5,77.0,65.3,72.5,68.0,61.3,90,75,59,30.08,30.02,9,3,15,0.00
2013-7-15,91.9,79.6,68.2,75.9,71.7,65.8,93,78,56,30.15,30.07,8,2,15,0.00
2013-7-16,89.0,81.6,73.3,77.3,74.5,71.2,94,80,65,30.18,30.12,7,3,15,0.00
2013-7-17,91.2,82.0,70.4,76.8,73.6,68.6,95,77,57,30.20,30.06,9,3,15,0.00
2013-7-18,91.5,82.4,72.3,77.5,73.9,70.2,94,77,55,30.07,29.86,11,5,18,0.00
2013-7-20,78.3,78.3,78.3,66.0,66.0,66.0,66,66,66,29.79,29.79,5,5,15,0.00
2013-8-2,83.3,83.3,83.3,67.5,67.5,67.5,59,59,59,29.75,29.75,6,6,6,0.00
2013-8-7,85.8,79.0,66.3,74.1,68.6,62.6,89,72,52,29.84,29.70,10,5,15,0.00
2013-8-8,79.2,70.3,63.2,65.7,63.4,59.1,94,80,59,29.92,29.84,8,2,14,0.00
2013-8-9,80.5,69.2,57.5,69.2,62.1,55.2,94,79,60,29.96,29.88,12,3,15,0.00
2013-8-10,79.5,68.3,57.0,62.9,58.6,55.2,96,74,45,30.04,29.96,7,2,14,0.00
2013-8-11,81.1,68.7,53.6,66.8,60.6,52.2,96,77,55,30.04,29.92,11,3,18,0.00
2013-8-12,82.0,73.5,64.2,69.6,65.0,59.4,86,76,59,29.93,29.77,11,5,15,0.00
2013-8-13,72.1,62.8,52.0,59.3,51.9,46.5,92,70,43,30.05,29.84,9,4,18,0.00
2013-8-14,74.0,60.8,46.5,56.9,50.8,44.6,94,73,44,30.14,30.04,7,1,14,0.00
2013-8-15,74.7,62.0,51.6,59.6,53.7,49.4,93,76,43,30.09,30.00,7,2,14,0.00
2013-8-16,80.2,66.0,50.3,61.5,55.0,48.6,96,71,40,30.08,30.03,9,2,14,0.00
2013-8-17,79.9,67.1,51.6,61.4,55.7,49.1,92,69,43,30.13,30.05,8,2,14,0.00
2013-8-18,81.2,67.6,52.0,62.5,57.1,49.7,94,72,46,30.11,30.00,7,1,14,0.00
2013-8-19,82.5,69.8,55.4,66.4,61.4,53.4,94,77,54,30.02,29.92,10,3,16,0.00
2013-8-20,84.5,74.9,64.6,69.8,65.8,61.6,92,75,56,30.00,29.91,12,3,20,0.00
2013-8-21,86.8,78.3,69.2,70.2,67.6,64.7,87,71,54,29.97,29.86,14,6,25,0.00
2013-8-22,77.8,71.2,65.0,68.3,66.8,63.3,95,87,72,30.06,29.88,9,4,14,0.01
2013-8-23,81.6,69.6,59.9,67.1,60.4,53.6,97,76,44,30.07,29.99,9,2,15,0.00
2013-8-24,83.0,71.9,58.6,70.5,63.5,53.6,92,76,62,30.14,30.05,9,4,14,0.00
2013-8-25,87.4,77.1,68.0,71.7,67.4,62.3,83,73,58,30.13,30.02,12,6,16,0.00
2013-8-26,89.1,79.5,71.2,75.6,69.8,63.5,83,73,57,30.04,29.88,12,6,16,0.00
2013-8-27,92.2,83.3,74.1,75.5,72.1,67.7,87,70,54,29.89,29.73,15,8,24,0.00
2013-8-28,86.6,79.9,72.1,77.6,71.7,66.8,89,76,66,29.91,29.74,11,5,18,0.00
2013-8-29,84.6,74.4,66.1,73.1,69.2,64.3,96,85,63,29.98,29.86,7,3,14,0.00
2013-8-30,95.3,80.1,68.1,77.3,71.2,66.3,95,77,45,29.86,29.64,13,5,24,0.00
2013-8-31,80.5,73.6,68.0,72.0,69.1,65.9,94,86,73,29.73,29.66,10,4,14,0.00
2013-9-1,87.0,73.8,60.8,74.8,67.1,59.3,97,81,58,29.73,29.61,8,2,14,0.00
2013-9-2,76.8,67.5,56.9,63.9,59.6,53.9,94,77,55,29.90,29.73,8,3,14,0.00
2013-9-3,77.1,63.1,50.3,61.7,54.8,48.9,96,77,47,30.00,29.90,5,1,14,0.00
2013-9-4,84.3,66.9,50.2,66.5,57.1,48.8,99,75,39,30.05,29.95,8,2,14,0.00
2013-9-5,77.5,68.1,60.5,66.5,61.4,53.3,95,80,62,30.12,30.00,9,4,14,0.00
2013-9-6,84.8,72.0,59.5,68.0,61.3,52.8,83,70,55,30.10,29.90,9,3,15,0.00
2013-9-7,88.3,76.0,67.3,70.0,65.8,61.5,88,72,50,29.90,29.76,12,4,18,0.00
2013-9-8,80.8,73.7,68.9,71.3,68.3,65.8,91,84,72,29.89,29.80,10,5,15,0.00
2013-9-9,94.6,80.8,68.1,76.5,71.4,66.3,95,75,53,29.82,29.69,12,6,20,0.00
2013-9-10,94.0,84.6,74.3,68.2,65.6,63.2,69,54,37,29.89,29.76,19,10,24,0.00
2013-9-11,87.9,78.7,69.6,72.3,67.8,65.2,90,70,54,29.93,29.86,11,5,18,0.00
2013-9-12,78.7,69.4,56.5,66.8,57.0,49.1,95,68,39,29.99,29.87,11,5,20,0.00
2013-9-13,68.3,57.0,45.8,50.3,43.1,35.1,90,64,30,30.11,29.99,8,3,15,0.00
2013-9-14,71.2,57.1,40.6,49.6,44.2,38.6,94,66,37,30.10,29.92,8,2,14,0.00
2013-9-15,59.6,57.4,54.4,57.4,52.8,46.3,94,85,63,30.08,29.87,6,3,14,0.00
2013-9-16,67.3,57.5,48.1,54.8,49.7,45.1,94,77,51,30.27,30.08,9,4,14,0.00
2013-9-17,69.2,58.1,44.2,57.2,51.5,42.3,95,80,63,30.23,29.99,10,4,14,0.00
2013-9-18,75.8,68.8,61.5,69.5,62.7,54.4,92,81,71,30.00,29.78,9,4,15,0.00
2013-9-19,91.7,78.6,68.5,72.1,68.9,64.1,91,74,49,29.82,29.63,18,7,25,0.00
2013-9-20,70.5,65.4,56.6,65.4,59.2,51.6,95,81,57,29.77,29.64,14,8,19,0.00
2013-9-21,67.1,57.0,47.7,52.6,48.9,45.5,95,76,51,29.87,29.75,8,4,19,0.00
2013-9-22,69.3,55.0,41.6,51.7,46.3,40.0,95,75,46,29.98,29.86,5,1,14,0.00
2013-9-23,71.3,57.9,46.4,52.2,48.4,43.6,91,73,47,30.01,29.90,8,4,14,0.00
2013-9-24,73.1,60.4,49.3,53.7,50.3,45.7,88,71,46,29.93,29.81,11,5,16,0.00
2013-9-25,75.4,60.8,48.1,54.1,50.6,46.5,94,73,40,29.87,29.80,8,3,14,0.00
2013-9-26,78.8,62.1,46.4,57.6,51.6,44.8,96,72,44,29.97,29.86,10,3,14,0.00
2013-9-27,81.9,67.7,55.2,56.5,51.8,47.9,86,60,31,30.04,29.91,10,4,18,0.00
2013-9-28,82.5,67.7,55.8,65.8,58.2,51.1,93,73,50,29.94,29.77,20,8,33,0.00
2013-9-29,70.6,58.3,48.8,55.6,48.0,40.7,97,72,34,29.99,29.87,7,2,14,0.00
2013-9-30,76.2,60.4,42.5,56.8,47.7,40.3,94,66,37,29.91,29.76,10,4,16,0.00
2013-10-1,81.7,69.3,59.0,65.0,61.8,56.3,95,79,55,29.86,29.77,15,7,25,0.00
2013-10-2,81.8,69.9,58.7,63.7,56.9,41.7,95,67,30,29.98,29.85,10,4,15,0.00
2013-10-3,78.6,70.2,64.4,69.9,66.3,60.3,96,88,71,29.85,29.71,11,5,19,0.00
2013-10-4,75.9,69.4,65.5,70.1,66.6,62.6,95,91,78,29.87,29.77,10,3,13,0.00
2013-10-5,76.9,69.3,57.8,71.3,65.7,51.7,95,88,79,29.81,29.65,12,5,18,0.00
2013-10-6,57.9,49.7,43.6,51.8,42.0,38.6,93,76,54,29.71,29.63,15,6,19,0.00
2013-10-7,69.8,54.0,41.8,48.8,45.4,40.3,96,76,43,29.99,29.70,13,5,21,0.00
2013-10-8,77.0,59.4,42.1,53.6,47.1,40.7,96,68,35,30.08,29.99,11,2,16,0.00
2013-10-9,73.8,59.7,48.5,50.1,46.2,42.1,89,64,34,30.13,30.01,9,3,12,0.00
2013-10-10,76.8,59.9,45.0,56.9,50.5,42.2,92,74,47,30.07,29.92,9,3,14,0.00
2013-10-11,78.2,65.1,54.7,60.3,55.0,51.4,90,72,46,29.94,29.80,13,6,18,0.00
2013-10-12,70.6,62.6,46.0,61.0,51.6,40.4,89,69,36,30.11,29.81,14,6,21,0.00
2013-10-13,64.5,49.8,37.5,44.8,38.3,32.6,93,69,32,30.32,30.11,7,1,12,0.00
2013-10-14,64.8,49.6,34.0,46.4,40.6,31.6,93,74,45,30.32,30.00,11,4,16,0.00
2013-10-15,68.5,56.2,47.2,61.8,49.5,41.6,95,79,64,30.00,29.66,16,8,24,0.00
2013-10-16,52.2,49.5,45.6,45.9,44.3,41.0,91,82,77,29.87,29.76,13,9,22,0.00
2013-10-17,57.7,48.0,39.7,46.2,42.4,37.1,95,83,47,29.85,29.75,12,5,19,0.00
2013-10-18,48.4,44.5,38.7,41.7,38.7,36.3,94,80,68,29.90,29.76,13,6,19,0.00
2013-10-19,54.2,44.5,37.2,39.3,36.5,32.9,87,74,46,29.87,29.71,16,6,24,0.00
2013-10-20,61.9,49.5,37.1,46.9,41.3,34.4,92,74,54,29.78,29.63,10,4,15,0.00
2013-10-21,55.5,42.6,32.0,45.0,31.3,23.9,81,65,44,29.91,29.72,17,8,26,0.00
2013-10-22,38.1,33.3,25.9,35.5,30.4,23.1,95,89,72,29.93,29.84,5,2,12,0.00
2013-10-23,42.6,36.8,30.6,32.9,30.2,27.4,95,78,60,29.98,29.88,10,4,15,0.05
2013-10-24,39.5,36.0,29.1,33.4,27.2,22.9,87,71,53,30.27,29.97,11,5,19,0.01
2013-10-25,51.9,39.5,25.7,33.3,26.9,22.4,89,64,41,30.35,29.97,17,8,26,0.00
2013-10-26,52.4,45.1,32.3,36.1,30.7,27.1,84,58,43,30.02,29.80,16,8,24,0.00
2013-10-27,55.4,41.3,26.7,33.6,29.9,24.1,92,67,40,30.01,29.88,13,4,20,0.00
2013-10-28,58.4,42.4,31.1,43.3,35.4,27.7,89,77,53,30.28,29.97,11,4,20,0.00
2013-10-29,56.6,45.6,33.4,45.9,38.4,31.1,93,77,54,30.27,30.04,10,5,12,0.00
2013-10-30,60.1,53.3,49.4,59.2,51.9,45.9,97,95,87,30.04,29.67,13,4,16,0.01
2013-10-31,63.3,57.0,43.7,61.5,55.0,40.4,97,93,88,29.67,29.17,16,8,24,0.01
2013-11-1,46.6,44.6,41.6,43.8,41.5,39.7,94,89,84,29.68,29.35,14,8,19,0.00
2013-11-2,48.5,41.4,33.9,39.9,36.4,30.9,95,83,62,30.08,29.68,8,2,16,0.00
2013-11-3,51.5,40.4,27.7,39.2,33.6,26.2,95,78,56,30.22,30.07,12,5,18,0.01
2013-11-4,56.9,49.5,41.7,45.3,40.7,35.8,81,72,57,30.15,29.97,17,9,26,0.00
2013-11-5,54.4,52.1,49.6,51.6,48.4,45.1,94,87,76,30.15,29.82,16,7,24,0.00
2013-11-6,56.8,45.6,34.1,55.1,41.6,27.3,94,86,72,30.12,29.68,18,10,32,0.00
2013-11-7,40.4,33.7,28.5,34.3,29.4,25.2,92,84,73,30.19,30.12,13,6,20,0.01
2013-11-8,49.2,39.6,26.5,36.2,31.0,24.5,93,73,47,30.26,29.80,19,7,25,0.02
2013-11-9,57.5,49.3,40.5,41.6,38.4,29.5,79,67,54,30.08,29.76,24,14,31,0.00
2013-11-10,47.3,40.3,30.3,33.1,30.9,26.6,88,70,54,30.30,30.08,10,6,15,0.00
2013-11-11,46.6,37.2,22.2,36.9,29.8,16.7,93,75,60,30.49,30.01,12,7,18,0.00
2013-11-12,30.9,23.7,18.5,20.0,16.5,13.6,83,74,57,30.68,30.49,9,4,16,0.03
2013-11-13,40.6,30.7,18.8,22.5,18.4,14.5,85,62,45,30.56,30.08,20,11,28,0.09
2013-11-14,51.5,42.3,33.3,30.7,25.0,19.4,61,51,40,30.09,29.84,19,12,30,0.63
2013-11-15,51.8,43.4,37.7,37.7,31.4,24.3,83,63,49,29.90,29.81,15,7,20,0.00
2013-11-16,59.0,51.5,38.9,55.7,48.6,34.9,93,90,81,29.82,29.44,21,13,34,0.23
2013-11-17,67.3,53.9,41.4,62.6,50.2,36.9,95,87,76,29.71,29.02,30,15,43,0.44
2013-11-18,42.4,37.5,30.8,37.1,29.8,25.1,88,74,57,30.20,29.71,19,10,30,0.00
2013-11-19,40.4,32.9,22.9,30.6,26.9,20.9,93,79,64,30.30,30.17,10,4,13,0.00
2013-11-20,40.3,36.4,31.4,36.9,31.8,27.1,91,83,73,30.18,29.99,13,8,20,0.18
2013-11-21,46.7,43.0,39.4,42.6,39.9,36.7,92,89,84,30.15,30.01,7,2,10,0.00
2013-11-22,41.0,33.9,24.5,38.6,29.7,21.0,93,85,72,30.42,30.15,10,6,19,0.00
2013-11-23,24.3,20.1,12.9,21.0,11.8,6.3,88,71,50,30.69,30.40,14,7,22,0.00
2013-11-24,27.6,18.3,9.2,12.5,8.0,5.0,85,66,42,30.69,30.32,13,6,18,0.00
2013-11-25,32.4,28.1,20.7,27.9,21.1,12.4,89,75,58,30.32,30.02,20,11,25,0.00
2013-11-26,32.5,27.3,15.1,27.4,20.7,6.4,89,76,62,30.16,29.98,11,7,20,0.00
2013-11-27,25.4,18.7,10.8,15.7,10.1,4.0,77,69,55,30.24,30.15,10,4,14,0.00
2013-11-28,32.4,24.8,16.1,19.4,15.9,12.6,89,69,58,30.45,30.11,11,4,14,0.00
2013-11-29,34.4,24.9,11.8,23.1,16.9,8.7,90,73,53,30.57,30.31,9,4,14,0.00
2013-11-30,50.5,38.0,28.3,35.0,29.2,22.7,87,71,55,30.31,29.97,15,6,20,0.00
2013-12-1,43.0,33.7,27.1,32.8,28.4,24.5,92,81,62,30.06,29.90,6,2,11,0.00
2013-12-2,41.3,36.7,32.8,35.0,31.9,28.8,92,83,71,29.90,29.62,11,6,14,0.03
2013-12-3,47.4,41.9,37.1,46.5,40.7,35.0,97,95,92,29.63,29.55,11,5,14,0.01
2013-12-4,53.3,45.9,30.6,51.6,44.6,28.0,97,95,86,29.66,29.39,22,8,28,0.00
2013-12-5,30.6,21.9,18.0,28.0,15.9,10.8,90,77,70,30.24,29.65,21,12,32,0.00
2013-12-6,17.9,14.6,10.3,11.2,7.7,3.9,79,74,66,30.53,30.22,8,5,12,0.00
2013-12-7,17.9,10.8,5.6,6.6,3.9,1.4,84,74,56,30.68,30.54,6,2,10,0.00
2013-12-8,22.3,18.6,12.1,19.9,14.2,6.2,92,83,70,30.57,29.92,11,5,16,0.00
2013-12-9,21.6,10.8,-4.2,19.9,6.7,-8.3,93,83,71,30.20,29.91,21,9,24,0.00
2013-12-10,19.5,11.9,-1.9,12.7,5.1,-6.8,83,74,66,30.26,29.98,22,10,32,0.00
2013-12-11,18.0,9.7,-5.3,14.8,4.4,-10.8,90,79,60,30.56,30.23,10,4,14,0.00
2013-12-12,19.8,9.7,-4.8,11.7,3.3,-9.7,92,75,63,30.53,30.18,17,6,22,0.00
2013-12-13,28.5,20.1,6.2,25.0,15.4,2.8,91,82,72,30.18,30.02,10,4,12,0.00
2013-12-14,29.0,25.3,17.7,27.7,23.2,14.8,95,91,88,30.03,29.88,11,6,14,0.01
2013-12-15,18.1,12.1,9.2,15.0,6.8,3.2,88,79,74,30.09,29.92,17,7,25,0.00
2013-12-16,17.5,13.9,7.3,15.4,9.5,1.6,92,82,65,30.10,29.97,7,3,9,0.00
2013-12-17,33.8,24.8,16.9,27.3,20.1,12.4,93,83,64,30.09,29.93,15,10,23,0.01
2013-12-18,39.8,25.8,12.3,31.8,18.5,9.4,89,74,58,30.11,29.76,14,6,22,0.00
2013-12-19,39.9,35.3,27.2,32.8,31.3,23.8,95,85,72,29.83,29.70,10,4,13,0.12
2013-12-20,33.6,31.0,26.3,32.3,29.7,24.8,100,95,93,29.77,29.66,9,3,18,0.15
2013-12-21,33.0,28.2,25.9,31.7,26.7,24.3,100,94,93,29.81,29.55,0,0,9,0.00
2013-12-22,33.0,27.2,19.4,31.7,25.1,16.7,95,92,89,30.10,29.54,9,1,19,0.00
2013-12-23,19.3,4.1,-3.7,16.7,0.0,-7.7,92,83,78,30.46,30.10,14,9,20,0.00
2013-12-24,18.3,3.3,-8.5,13.9,-1.0,-12.3,86,82,73,30.56,30.29,10,4,21,0.00
2013-12-25,25.7,22.9,18.3,23.6,19.7,13.7,93,87,78,30.30,30.07,14,9,21,0.01
2013-12-26,36.2,25.9,13.4,31.2,21.2,9.7,89,82,76,30.23,30.09,16,8,21,0.00
2013-12-27,41.7,33.2,23.2,32.8,27.7,21.2,93,81,69,30.22,30.03,16,7,22,0.12
2013-12-28,47.4,41.2,35.5,35.4,33.0,30.4,86,73,62,30.03,29.73,15,9,21,0.00
2013-12-29,41.6,25.0,4.6,31.8,20.0,-1.3,94,82,67,30.19,29.70,13,9,20,0.00
2013-12-30,6.4,2.6,-3.7,3.9,-3.3,-9.6,92,76,66,30.31,30.17,7,2,11,0.00
2013-12-31,10.8,5.5,-4.4,7.1,1.9,-8.0,87,85,83,30.34,30.18,9,3,15,0.00
2014-1-1,18.1,12.1,9.3,15.6,9.0,5.4,91,87,83,30.25,30.15,10,8,18,0.00
2014-1-2,14.0,8.4,-6.7,9.1,4.0,-10.6,92,82,76,30.42,30.14,10,6,18,0.00